Data for 12/27/2006

Time Sea-Level Adjusted Pressure Absolute Pressure Temperature Relative Humidity Dew Point   
(mb) (inHg) (mb) (inHg) (C) (F) (%) (C) (F)
00:05 1006 29.71 836 24.69 5.2 41.4 63 -1.2 29.8
00:10 1006 29.71 836 24.69 5.2 41.4 63 -1.2 29.8
00:15 1006 29.71 836 24.69 5.1 41.2 63 -1.3 29.7
00:20 1007 29.74 836 24.69 5 41.1 63 -1.4 29.5
00:25 1006 29.71 836 24.69 5.2 41.3 64 -1.2 29.9
00:30 1006 29.71 836 24.69 5.1 41.2 64 -1.2 29.8
00:35 1006 29.71 836 24.69 5.2 41.4 63 -1.2 29.9
00:40 1006 29.71 835 24.66 5.3 41.5 63 -1.2 29.9
00:45 1006 29.71 835 24.66 5.3 41.5 63 -1.2 29.9
00:50 1006 29.71 835 24.66 5.4 41.7 63 -1.1 30
00:55 1006 29.71 835 24.66 5.4 41.8 63 -1.1 30
01:00 1006 29.71 835 24.66 5.1 41.2 65 -0.9 30.3
01:05 1006 29.71 835 24.66 4.4 39.9 68 -1.1 30.1
01:10 1006 29.71 835 24.66 4.1 39.5 69 -1.1 30
01:15 1006 29.71 835 24.66 4 39.2 69 -1.3 29.7
01:20 1006 29.71 835 24.66 4.2 39.6 67 -1.3 29.6
01:25 1006 29.71 835 24.66 4.5 40.1 66 -1.3 29.7
01:30 1006 29.71 835 24.66 4.6 40.2 66 -1.2 29.9
01:35 1005 29.68 835 24.66 4.6 40.2 66 -1.2 29.9
01:40 1005 29.68 835 24.66 4.5 40.1 66 -1.2 29.8
01:45 1005 29.68 835 24.66 4.4 39.9 67 -1.2 29.9
01:50 1005 29.68 834 24.63 4.3 39.7 67 -1.3 29.7
01:55 1005 29.68 834 24.63 4.4 39.9 66 -1.3 29.6
02:00 1005 29.68 834 24.63 4.5 40.2 66 -1.3 29.6
02:05 1005 29.68 834 24.63 4.5 40.1 65 -1.5 29.3
02:10 1005 29.68 834 24.63 4.5 40.2 65 -1.4 29.5
02:15 1005 29.68 834 24.63 4.4 39.9 66 -1.4 29.5
02:20 1005 29.68 834 24.63 4.3 39.7 66 -1.4 29.4
02:25 1005 29.68 834 24.63 4.4 39.9 65 -1.6 29.2
02:30 1005 29.68 834 24.63 4.4 39.9 65 -1.5 29.2
02:35 1005 29.68 834 24.63 4.1 39.3 68 -1.3 29.6
02:40 1005 29.68 834 24.63 4 39.2 67 -1.6 29.2
02:45 1005 29.68 834 24.63 4.2 39.5 66 -1.6 29.2
02:50 1005 29.68 834 24.63 4.3 39.8 65 -1.6 29.2
02:55 1005 29.68 834 24.63 4.3 39.8 66 -1.6 29.2
03:00 1005 29.68 834 24.63 4.3 39.8 66 -1.5 29.4
03:05 1005 29.68 834 24.63 4.2 39.5 66 -1.5 29.3
03:10 1005 29.68 834 24.63 4.2 39.5 67 -1.5 29.3
03:15 1005 29.68 834 24.63 4.1 39.3 67 -1.6 29.2
03:20 1005 29.68 834 24.63 4.1 39.4 66 -1.7 29
03:25 1005 29.68 834 24.63 4.2 39.5 65 -1.7 28.9
03:30 1005 29.68 834 24.63 4.3 39.8 64 -1.8 28.7
03:35 1005 29.68 834 24.63 4.5 40 64 -1.8 28.7
03:40 1005 29.68 834 24.63 4.6 40.2 64 -1.7 29
03:45 1005 29.68 834 24.63 4.5 40 64 -1.7 28.9
03:50 1005 29.68 834 24.63 4.5 40 64 -1.7 28.9
03:55 1005 29.68 834 24.63 4.4 40 64 -1.8 28.8
04:00 1005 29.68 834 24.63 4.4 39.9 64 -1.8 28.8
04:05 1005 29.68 834 24.63 4.3 39.8 64 -1.8 28.8
04:10 1005 29.68 834 24.63 4.2 39.5 65 -1.8 28.8
04:15 1005 29.68 834 24.63 4.2 39.6 65 -1.8 28.7
04:20 1005 29.68 834 24.63 4.1 39.5 66 -1.7 28.9
04:25 1005 29.68 834 24.63 3.9 38.9 67 -1.7 29
04:30 1005 29.68 834 24.63 3.8 38.8 68 -1.7 29
04:35 1005 29.68 834 24.63 3.5 38.3 69 -1.6 29.2
04:40 1005 29.68 834 24.63 3.5 38.3 70 -1.4 29.4
04:45 1004 29.65 834 24.63 3.5 38.3 70 -1.5 29.2
04:50 1004 29.65 834 24.63 4 39.1 65 -1.9 28.5
04:55 1004 29.65 834 24.63 4 39.2 67 -1.5 29.2
05:00 1004 29.65 834 24.63 4.4 40 62 -2.3 27.9
05:05 1004 29.65 833 24.6 4.6 40.3 65 -1.4 29.4
05:10 1004 29.65 833 24.6 4 39.2 65 -2 28.5
05:15 1004 29.65 833 24.6 4.4 40 64 -1.8 28.7
05:20 1004 29.65 833 24.6 3.9 38.9 67 -1.7 29
05:25 1004 29.65 833 24.6 3.3 38 70 -1.5 29.3
05:30 1004 29.65 833 24.6 3.4 38.1 68 -1.9 28.6
05:35 1004 29.65 833 24.6 3.7 38.6 66 -2.1 28.2
05:40 1004 29.65 833 24.6 3.9 39 67 -1.7 29
05:45 1004 29.65 833 24.6 3.5 38.2 71 -1.4 29.5
05:50 1004 29.65 833 24.6 3.1 37.6 69 -2 28.4
05:55 1004 29.65 833 24.6 3.2 37.7 69 -2 28.4
06:00 1004 29.65 833 24.6 3 37.4 69 -2 28.3
06:05 1004 29.65 833 24.6 3.1 37.7 68 -2.3 27.9
06:10 1004 29.65 833 24.6 3.4 38.1 67 -2.1 28.2
06:15 1004 29.65 833 24.6 3.4 38 67 -2.1 28.2
06:20 1004 29.65 833 24.6 3.3 37.9 68 -2 28.3
06:25 1004 29.65 833 24.6 3.1 37.6 67 -2.3 27.8
06:30 1004 29.65 833 24.6 3.2 37.8 67 -2.4 27.7
06:35 1004 29.65 833 24.6 3.2 37.8 66 -2.4 27.6
06:40 1004 29.65 833 24.6 3.4 38.2 65 -2.6 27.3
06:45 1004 29.65 833 24.6 3.7 38.7 64 -2.6 27.4
06:50 1004 29.65 833 24.6 3.7 38.7 63 -2.5 27.4
06:55 1004 29.65 833 24.6 3.8 38.8 63 -2.6 27.4
07:00 1004 29.65 833 24.6 3.7 38.7 64 -2.5 27.5
07:05 1004 29.65 833 24.6 3.7 38.6 64 -2.5 27.5
07:10 1004 29.65 833 24.6 3.5 38.3 65 -2.4 27.6
07:15 1003 29.62 833 24.6 3.3 38 66 -2.5 27.6
07:20 1003 29.62 833 24.6 3.3 37.9 66 -2.5 27.5
07:25 1003 29.62 833 24.6 3 37.5 68 -2.3 27.9
07:30 1003 29.62 832 24.57 2.8 37 69 -2.4 27.7
07:35 1003 29.62 832 24.57 2.6 36.7 70 -2.4 27.7
07:40 1003 29.62 832 24.57 2.6 36.7 69 -2.5 27.5
07:45 1003 29.62 832 24.57 2.7 36.9 68 -2.5 27.5
07:50 1003 29.62 832 24.57 2.8 37.1 68 -2.6 27.3
07:55 1003 29.62 832 24.57 3 37.3 67 -2.5 27.5
08:00 1003 29.62 832 24.57 3 37.3 67 -2.5 27.5
08:05 1003 29.62 832 24.57 2.8 37.1 68 -2.6 27.4
08:10 1003 29.62 832 24.57 2.7 36.9 68 -2.6 27.4
08:15 1003 29.62 832 24.57 2.6 36.7 69 -2.5 27.5
08:20 1003 29.62 833 24.6 2.4 36.3 70 -2.6 27.4
08:25 1003 29.62 832 24.57 2.3 36.2 71 -2.4 27.6
08:30 1003 29.62 833 24.6 2.4 36.2 69 -2.7 27.1
08:35 1003 29.62 832 24.57 2.5 36.6 68 -2.8 27
08:40 1003 29.62 832 24.57 2.8 37.1 67 -2.7 27.2
08:45 1003 29.62 832 24.57 2.8 37.1 68 -2.5 27.4
08:50 1003 29.62 833 24.6 2.9 37.2 68 -2.5 27.5
08:55 1003 29.62 833 24.6 2.9 37.3 67 -2.5 27.4
09:00 1003 29.62 833 24.6 3 37.4 67 -2.5 27.5
09:05 1003 29.62 833 24.6 3.2 37.8 65 -2.8 27
09:10 1003 29.62 833 24.6 3.3 37.9 65 -2.5 27.4
09:15 1003 29.62 833 24.6 3.4 38.1 64 -2.8 27
09:20 1003 29.62 833 24.6 3.5 38.3 65 -2.6 27.4
09:25 1003 29.62 833 24.6 3.5 38.3 65 -2.5 27.5
09:30 1003 29.62 833 24.6 3.4 38.2 66 -2.4 27.7
09:35 1003 29.62 833 24.6 3.5 38.4 64 -2.6 27.2
09:40 1003 29.62 833 24.6 3.7 38.7 64 -2.4 27.7
09:45 1003 29.62 833 24.6 3.7 38.7 64 -2.4 27.7
09:50 1003 29.62 833 24.6 3.8 38.8 62 -2.7 27.1
09:55 1003 29.62 833 24.6 4.1 39.4 62 -2.5 27.6
10:00 1004 29.65 833 24.6 4.4 39.9 64 -1.8 28.7
10:05 1004 29.65 833 24.6 4.4 39.9 65 -1.6 29
10:10 1004 29.65 833 24.6 4.3 39.8 64 -1.8 28.7
10:15 1004 29.65 833 24.6 3.8 38.8 68 -1.5 29.3
10:20 1003 29.62 833 24.6 3.3 37.9 69 -1.9 28.6
10:25 1003 29.62 833 24.6 3.2 37.8 70 -1.7 28.9
10:30 1003 29.62 832 24.57 3.1 37.5 72 -1.6 29.2
10:35 1003 29.62 832 24.57 3 37.5 71 -1.7 28.9
10:40 1003 29.62 832 24.57 3 37.5 70 -1.8 28.7
10:45 1003 29.62 832 24.57 2.9 37.2 71 -1.8 28.7
10:50 1003 29.62 832 24.57 3.1 37.6 69 -2 28.5
10:55 1003 29.62 832 24.57 3.3 37.9 69 -1.9 28.6
11:00 1003 29.62 832 24.57 3.5 38.3 66 -2.2 28.1
11:05 1003 29.62 832 24.57 3.7 38.7 65 -2.2 28
11:10 1003 29.62 832 24.57 4.1 39.4 64 -2.1 28.3
11:15 1003 29.62 832 24.57 4.5 40.1 62 -2.1 28.2
11:20 1003 29.62 832 24.57 4.6 40.3 64 -1.7 29
11:25 1003 29.62 832 24.57 4.3 39.8 67 -1.3 29.6
11:30 1003 29.62 832 24.57 3.9 38.9 68 -1.5 29.2
11:35 1003 29.62 832 24.57 4 39.1 68 -1.4 29.4
11:40 1003 29.62 832 24.57 3.7 38.7 68 -1.7 29
11:45 1003 29.62 832 24.57 3.7 38.7 68 -1.5 29.2
11:50 1003 29.62 832 24.57 4.3 39.7 66 -1.4 29.4
11:55 1003 29.62 832 24.57 4.6 40.2 65 -1.4 29.4
12:00 1003 29.62 832 24.57 4.6 40.2 65 -1.3 29.6
12:05 1003 29.62 832 24.57 4.6 40.2 65 -1.5 29.2
12:10 1003 29.62 832 24.57 4.5 40.2 65 -1.5 29.3
12:15 1003 29.62 832 24.57 4.5 40.1 66 -1.2 29.8
12:20 1003 29.62 832 24.57 4.6 40.3 66 -1.2 29.8
12:25 1003 29.62 832 24.57 4.8 40.6 64 -1.3 29.6
12:30 1003 29.62 832 24.57 5 40.9 65 -1.2 29.9
12:35 1003 29.62 832 24.57 5.2 41.3 62 -1.6 29.2
12:40 1002 29.59 832 24.57 5.1 41.2 62 -1.6 29.2
12:45 1002 29.59 832 24.57 4.8 40.7 64 -1.5 29.4
12:50 1002 29.59 832 24.57 4.4 39.9 66 -1.4 29.4
12:55 1002 29.59 832 24.57 4.6 40.4 64 -1.6 29.2
13:00 1002 29.59 832 24.57 5.3 41.6 62 -1.4 29.5
13:05 1002 29.59 832 24.57 5.4 41.7 63 -1.1 30
13:10 1003 29.62 832 24.57 5.1 41.2 63 -1.4 29.5
13:15 1003 29.62 832 24.57 5.3 41.5 64 -1.1 30.1
13:20 1003 29.62 832 24.57 5.5 41.9 63 -0.9 30.4
13:25 1003 29.62 832 24.57 5.2 41.4 65 -0.8 30.6
13:30 1003 29.62 832 24.57 5.3 41.6 63 -1.1 30.1
13:35 1003 29.62 832 24.57 5.6 42 64 -0.7 30.7
13:40 1003 29.62 832 24.57 5.9 42.6 63 -0.7 30.8
13:45 1003 29.62 832 24.57 5.6 42.2 64 -0.7 30.8
13:50 1003 29.62 832 24.57 5.2 41.3 67 -0.5 31.1
13:55 1003 29.62 832 24.57 4.8 40.7 69 -0.3 31.5
14:00 1003 29.62 832 24.57 4.7 40.5 69 -0.6 31
14:05 1003 29.62 832 24.57 5 40.9 68 -0.4 31.3
14:10 1003 29.62 832 24.57 4.8 40.6 70 -0.2 31.7
14:15 1003 29.62 832 24.57 4.6 40.3 72 0 32.1
14:20 1003 29.62 832 24.57 4.5 40.2 72 -0.1 31.8
14:25 1003 29.62 833 24.6 4.5 40.1 73 0 32
14:30 1003 29.62 833 24.6 4.6 40.3 72 -0 32
14:35 1003 29.62 833 24.6 4.6 40.4 73 0.2 32.3
14:40 1003 29.62 833 24.6 4.5 40.1 73 0.1 32.3
14:45 1003 29.62 833 24.6 4.1 39.4 76 0.2 32.4
14:50 1003 29.62 833 24.6 4.1 39.4 75 0.2 32.3
14:55 1004 29.65 833 24.6 4 39.1 76 0.2 32.3
15:00 1004 29.65 833 24.6 4 39.1 78 0.4 32.7
15:05 1003 29.62 833 24.6 4.1 39.4 76 0.3 32.6
15:10 1003 29.62 833 24.6 4.1 39.5 76 0.3 32.5
15:15 1003 29.62 833 24.6 4.1 39.4 77 0.5 32.8
15:20 1004 29.65 833 24.6 4.1 39.3 76 0.2 32.4
15:25 1004 29.65 833 24.6 3.9 39 77 0.1 32.2
15:30 1003 29.62 833 24.6 3.7 38.6 77 0.1 32.2
15:35 1004 29.65 833 24.6 3.5 38.2 78 0 32
15:40 1003 29.62 833 24.6 3.5 38.3 77 -0.1 31.8
15:45 1003 29.62 833 24.6 3.4 38.1 78 -0.1 31.8
15:50 1004 29.65 833 24.6 3.4 38.1 78 -0 31.9
15:55 1004 29.65 833 24.6 3.3 37.9 78 -0.1 31.7
16:00 1004 29.65 833 24.6 3.2 37.8 79 -0.1 31.8
16:05 1004 29.65 833 24.6 3.2 37.7 79 -0.1 31.7
16:10 1004 29.65 833 24.6 3 37.5 80 -0.2 31.7
16:15 1004 29.65 833 24.6 2.9 37.2 80 -0.3 31.5
16:20 1004 29.65 833 24.6 2.8 37 80 -0.2 31.6
16:25 1004 29.65 833 24.6 2.7 36.9 81 -0.3 31.5
16:30 1004 29.65 833 24.6 2.7 36.9 81 -0.3 31.5
16:35 1004 29.65 833 24.6 2.8 37 80 -0.3 31.4
16:40 1004 29.65 833 24.6 2.8 37 80 -0.3 31.5
16:45 1004 29.65 833 24.6 2.8 37 80 -0.3 31.5
16:50 1004 29.65 833 24.6 2.8 37.1 80 -0.3 31.5
16:55 1004 29.65 833 24.6 2.9 37.2 79 -0.4 31.3
17:00 1004 29.65 833 24.6 3 37.4 80 -0.1 31.7
17:05 1004 29.65 833 24.6 2.8 37 81 -0.2 31.6
17:10 1004 29.65 833 24.6 2.7 36.9 81 -0.3 31.5
17:15 1004 29.65 834 24.63 2.7 36.8 80 -0.4 31.2
17:20 1004 29.65 834 24.63 2.6 36.7 80 -0.4 31.2
17:25 1004 29.65 834 24.63 2.7 36.8 80 -0.5 31.1
17:30 1005 29.68 834 24.63 2.8 37 79 -0.5 31.1
17:35 1005 29.68 834 24.63 2.7 36.9 80 -0.4 31.3
17:40 1005 29.68 834 24.63 2.8 37 79 -0.5 31.1
17:45 1005 29.68 834 24.63 2.7 36.9 79 -0.6 31
17:50 1005 29.68 834 24.63 2.7 36.9 79 -0.6 30.9
17:55 1005 29.68 834 24.63 2.6 36.7 80 -0.6 31
18:00 1005 29.68 834 24.63 2.6 36.7 79 -0.6 30.9
18:05 1005 29.68 834 24.63 2.7 36.8 79 -0.6 30.9
18:10 1005 29.68 834 24.63 2.7 36.8 80 -0.5 31.1
18:15 1005 29.68 834 24.63 2.7 36.8 79 -0.6 30.9
18:20 1005 29.68 834 24.63 2.8 37 78 -0.6 30.8
18:25 1005 29.68 834 24.63 2.8 37 79 -0.6 31
18:30 1005 29.68 834 24.63 2.6 36.7 80 -0.6 31
18:35 1005 29.68 834 24.63 2.5 36.5 80 -0.7 30.8
18:40 1005 29.68 834 24.63 2.5 36.4 81 -0.5 31
18:45 1005 29.68 835 24.66 2.3 36.1 82 -0.4 31.3
18:50 1005 29.68 835 24.66 2.3 36.1 83 -0.4 31.4
18:55 1006 29.71 835 24.66 2.2 35.9 82 -0.5 31.1
19:00 1006 29.71 835 24.66 2.1 35.8 83 -0.6 31
19:05 1006 29.71 835 24.66 2.1 35.9 83 -0.5 31.1
19:10 1006 29.71 835 24.66 2.3 36.1 83 -0.4 31.3
19:15 1006 29.71 835 24.66 2.5 36.5 81 -0.5 31.1
19:20 1006 29.71 835 24.66 2.2 36 82 -0.5 31
19:25 1006 29.71 835 24.66 1.9 35.5 83 -0.6 30.9
19:30 1006 29.71 835 24.66 2 35.7 82 -0.7 30.8
19:35 1006 29.71 835 24.66 2 35.6 83 -0.6 30.9
19:40 1006 29.71 835 24.66 1.8 35.3 83 -0.7 30.7
19:45 1006 29.71 835 24.66 1.7 35.1 84 -0.7 30.7
19:50 1006 29.71 835 24.66 1.5 34.8 84 -0.9 30.5
19:55 1006 29.71 835 24.66 1.7 35 83 -0.8 30.5
20:00 1006 29.71 835 24.66 1.9 35.5 84 -0.5 31.2
20:05 1006 29.71 835 24.66 2.1 35.8 84 -0.3 31.4
20:10 1006 29.71 836 24.69 2.2 35.9 85 -0.1 31.8
20:15 1006 29.71 836 24.69 2.2 36 84 -0.2 31.7
20:20 1006 29.71 836 24.69 2.2 36 83 -0.4 31.4
20:25 1006 29.71 836 24.69 2.1 35.8 85 -0.2 31.7
20:30 1007 29.74 836 24.69 1.8 35.3 86 -0.2 31.6
20:35 1007 29.74 836 24.69 1.7 35.1 86 -0.3 31.4
20:40 1007 29.74 836 24.69 1.6 34.8 87 -0.4 31.3
20:45 1007 29.74 836 24.69 1.5 34.7 88 -0.3 31.4
20:50 1007 29.74 836 24.69 1.5 34.7 87 -0.4 31.3
20:55 1007 29.74 836 24.69 1.4 34.6 86 -0.6 30.9
21:00 1007 29.74 836 24.69 1.4 34.5 87 -0.5 31.1
21:05 1007 29.74 836 24.69 1.5 34.7 87 -0.4 31.2
21:10 1007 29.74 836 24.69 1.5 34.6 87 -0.5 31.1
21:15 1007 29.74 836 24.69 1.5 34.7 87 -0.5 31.1
21:20 1007 29.74 836 24.69 1.6 34.9 85 -0.7 30.8
21:25 1007 29.74 837 24.72 1.7 35 84 -0.8 30.5
21:30 1007 29.74 837 24.72 1.5 34.7 84 -0.9 30.4
21:35 1008 29.77 837 24.72 1.4 34.5 83 -1.1 29.9
21:40 1008 29.77 837 24.72 1.4 34.6 85 -0.8 30.5
21:45 1008 29.77 837 24.72 1.8 35.2 83 -0.7 30.7
21:50 1008 29.77 837 24.72 2 35.6 84 -0.4 31.4
21:55 1008 29.77 837 24.72 2.1 35.8 85 -0.2 31.7
22:00 1008 29.77 837 24.72 2.1 35.8 86 -0.1 31.9
22:05 1008 29.77 837 24.72 2.1 35.8 86 0 32
22:10 1008 29.77 837 24.72 2.3 36.1 86 0.2 32.3
22:15 1008 29.77 837 24.72 2.3 36.1 86 0.2 32.4
22:20 1008 29.77 838 24.75 2.1 35.8 88 0.3 32.5
22:25 1009 29.8 838 24.75 1.9 35.5 89 0.3 32.5
22:30 1009 29.8 838 24.75 1.6 35 91 0.3 32.5
22:35 1009 29.8 838 24.75 1.3 34.3 92 0.2 32.3
22:40 1009 29.8 838 24.75 1.1 34 93 0.1 32.3
22:45 1009 29.8 838 24.75 0.9 33.7 94 0.1 32.2
22:50 1009 29.8 838 24.75 0.8 33.5 95 0.1 32.1
22:55 1009 29.8 838 24.75 0.7 33.3 95 0.1 32.1
23:00 1009 29.8 838 24.75 0.6 33.1 96 0 32
23:05 1009 29.8 838 24.75 0.6 33.1 96 0.1 32.1
23:10 1009 29.8 839 24.78 0.4 32.8 96 -0.1 31.9
23:15 1009 29.8 839 24.78 0.4 32.8 97 -0 31.9
23:20 1010 29.83 839 24.78 0.4 32.7 97 -0.1 31.9
23:25 1010 29.83 839 24.78 0.3 32.6 97 -0.1 31.9
23:30 1010 29.83 839 24.78 0.3 32.6 98 0 32
23:35 1010 29.83 839 24.78 0.3 32.6 98 -0 32
23:40 1010 29.83 839 24.78 0.3 32.5 98 -0 31.9
23:45 1010 29.83 839 24.78 0.3 32.5 98 0 32
23:50 1010 29.83 839 24.78 0.3 32.5 98 0 32
23:55 1010 29.83 839 24.78 0.2 32.3 98 -0.1 31.9
24:00 1010 29.83 839 24.78 0.2 32.3 99 -0 32